createdAt,value
2019-03-29T00:02:19.192Z,53.03
2019-03-29T00:04:48.053Z,58.33
2019-03-29T00:07:16.751Z,55.90
2019-03-29T00:09:45.460Z,51.23
2019-03-29T00:12:14.333Z,54.40
2019-03-29T00:14:43.275Z,48.30
2019-03-29T00:17:11.943Z,49.53
2019-03-29T00:19:40.759Z,47.30
2019-03-29T00:22:09.465Z,47.33
2019-03-29T00:24:38.135Z,36.77
2019-03-29T00:27:06.984Z,43.60
2019-03-29T00:29:35.674Z,46.70
2019-03-29T00:32:04.332Z,51.60
2019-03-29T00:34:33.157Z,50.67
2019-03-29T00:37:02.019Z,48.13
2019-03-29T00:39:30.685Z,39.87
2019-03-29T00:41:59.548Z,45.90
2019-03-29T00:44:28.238Z,43.97
2019-03-29T00:46:56.891Z,41.53
2019-03-29T00:49:25.714Z,39.23
2019-03-29T00:51:56.445Z,34.67
2019-03-29T00:54:25.273Z,32.77
2019-03-29T00:56:53.973Z,37.87
2019-03-29T00:59:22.662Z,32.73
2019-03-29T01:01:53.349Z,30.07
2019-03-29T01:04:22.148Z,25.80
2019-03-29T01:06:51.698Z,23.83
2019-03-29T01:09:20.831Z,25.57
2019-03-29T01:11:49.855Z,24.17
2019-03-29T01:14:19.124Z,26.60
2019-03-29T01:16:48.245Z,25.90
2019-03-29T01:19:17.379Z,31.30
2019-03-29T01:21:46.602Z,33.77
2019-03-29T01:24:16.161Z,36.20
2019-03-29T01:26:45.282Z,43.60
2019-03-29T01:29:14.442Z,49.47
2019-03-29T01:31:46.112Z,57.33
2019-03-29T01:34:17.966Z,51.33
2019-03-29T01:36:47.733Z,40.00
2019-03-29T01:39:17.583Z,39.43
2019-03-29T01:41:47.181Z,29.33
2019-03-29T01:44:16.292Z,29.33
2019-03-29T01:46:45.361Z,28.23
2019-03-29T01:49:16.027Z,30.87
2019-03-29T01:51:48.410Z,35.73
2019-03-29T01:54:17.290Z,26.80
2019-03-29T01:56:46.126Z,34.37
2019-03-29T01:59:17.097Z,27.47
2019-03-29T02:01:46.719Z,31.77
2019-03-29T02:04:15.826Z,41.90
2019-03-29T02:06:45.770Z,35.83
2019-03-29T02:09:17.367Z,33.87
2019-03-29T02:11:46.860Z,35.23
2019-03-29T02:14:17.854Z,29.07
2019-03-29T02:16:47.778Z,36.60
2019-03-29T02:19:16.664Z,28.53
2019-03-29T02:21:45.566Z,31.00
2019-03-29T02:24:16.389Z,37.13
2019-03-29T02:26:45.377Z,38.20
2019-03-29T02:29:14.563Z,35.87
2019-03-29T02:31:45.478Z,41.00
2019-03-29T02:34:16.907Z,31.47
2019-03-29T02:36:46.112Z,24.87
2019-03-29T02:39:15.219Z,20.30
2019-03-29T02:41:46.605Z,19.73
2019-03-29T02:44:15.849Z,17.83
2019-03-29T02:46:44.927Z,25.40
2019-03-29T02:49:14.247Z,28.27
2019-03-29T02:51:43.520Z,53.23
2019-03-29T02:54:12.402Z,46.60
2019-03-29T02:56:41.078Z,62.90
2019-03-29T02:59:09.994Z,71.57
2019-03-29T03:01:38.729Z,57.57
2019-03-29T03:04:08.286Z,40.77
2019-03-29T03:06:36.976Z,42.13
2019-03-29T03:09:13.694Z,38.50
2019-03-29T03:11:37.756Z,33.27
2019-03-29T03:14:06.448Z,26.47
2019-03-29T03:16:35.946Z,24.93
2019-03-29T03:19:05.769Z,23.83
2019-03-29T03:21:34.488Z,21.57
2019-03-29T03:24:03.559Z,20.23
2019-03-29T03:26:34.360Z,24.47
2019-03-29T03:29:03.450Z,21.30
2019-03-29T03:31:32.280Z,22.30
2019-03-29T03:34:01.167Z,21.10
2019-03-29T03:36:30.208Z,21.67
2019-03-29T03:38:59.056Z,20.43
2019-03-29T03:41:27.911Z,22.03
2019-03-29T03:43:57.187Z,17.00
2019-03-29T03:46:25.894Z,21.47
2019-03-29T03:48:54.678Z,19.43
2019-03-29T03:51:24.570Z,19.60
2019-03-29T03:53:53.599Z,18.70
2019-03-29T03:56:23.351Z,19.47
2019-03-29T03:58:53.009Z,23.47
2019-03-29T04:01:22.033Z,22.23
2019-03-29T04:03:50.867Z,24.67
2019-03-29T04:06:19.568Z,24.73
2019-03-29T04:08:48.240Z,24.97
2019-03-29T04:11:17.060Z,24.30
2019-03-29T04:13:45.751Z,25.77
2019-03-29T04:16:14.569Z,26.07
2019-03-29T04:18:43.411Z,25.20
2019-03-29T04:21:12.063Z,23.97
2019-03-29T04:23:41.318Z,23.90
2019-03-29T04:26:10.548Z,24.07
2019-03-29T04:28:39.206Z,23.87
2019-03-29T04:31:08.099Z,20.10
2019-03-29T04:33:36.812Z,22.53
2019-03-29T04:36:06.228Z,22.13
2019-03-29T04:38:35.414Z,21.40
2019-03-29T04:41:05.186Z,38.27
2019-03-29T04:43:33.834Z,27.27
2019-03-29T04:46:02.558Z,25.80
2019-03-29T04:48:31.386Z,23.37
2019-03-29T04:51:00.275Z,21.03
2019-03-29T04:53:28.982Z,18.33
2019-03-29T04:55:57.873Z,19.63
2019-03-29T04:58:26.726Z,18.57
2019-03-29T05:00:55.422Z,17.60
2019-03-29T05:03:25.363Z,16.93
2019-03-29T05:05:54.178Z,19.73
2019-03-29T05:08:22.843Z,17.60
2019-03-29T05:10:51.957Z,26.70
2019-03-29T05:13:20.959Z,22.30
2019-03-29T05:15:49.656Z,21.30
2019-03-29T05:18:18.519Z,23.57
2019-03-29T05:20:47.634Z,25.83
2019-03-29T05:23:16.311Z,24.17
2019-03-29T05:25:45.106Z,22.83
2019-03-29T05:28:14.014Z,23.67
2019-03-29T05:30:42.699Z,22.30
2019-03-29T05:33:11.483Z,19.03
2019-03-29T05:35:40.373Z,19.37
2019-03-29T05:38:09.704Z,19.43
2019-03-29T05:40:38.388Z,24.13
2019-03-29T05:43:07.156Z,19.67
2019-03-29T05:45:36.062Z,19.97
2019-03-29T05:48:04.744Z,22.33
2019-03-29T05:50:36.604Z,21.73
2019-03-29T05:53:04.176Z,24.20
2019-03-29T05:55:33.203Z,20.13
2019-03-29T05:58:02.173Z,20.50
2019-03-29T06:00:30.960Z,19.53
2019-03-29T06:02:59.875Z,19.57
2019-03-29T06:05:28.573Z,19.47
2019-03-29T06:07:57.274Z,21.17
2019-03-29T06:10:26.129Z,19.50
2019-03-29T06:12:55.558Z,18.90
2019-03-29T06:15:24.383Z,20.37
2019-03-29T06:17:53.225Z,23.87
2019-03-29T06:20:21.936Z,26.60
2019-03-29T06:22:50.627Z,22.47
2019-03-29T06:25:19.516Z,19.90
2019-03-29T06:27:48.224Z,21.50
2019-03-29T06:30:28.517Z,21.50
2019-03-29T06:32:57.555Z,18.70
2019-03-29T06:35:30.876Z,18.93
2019-03-29T06:38:03.495Z,19.10
2019-03-29T06:40:32.665Z,19.10
2019-03-29T06:43:02.857Z,19.60
2019-03-29T06:45:31.932Z,19.70
2019-03-29T06:48:00.799Z,20.97
2019-03-29T06:50:29.785Z,21.27
2019-03-29T06:53:00.435Z,20.67
2019-03-29T06:55:32.701Z,20.23
2019-03-29T06:58:06.040Z,23.30
2019-03-29T07:00:36.923Z,24.80
2019-03-29T07:03:06.871Z,29.87
2019-03-29T07:05:35.631Z,39.30
2019-03-29T07:08:05.762Z,34.73
2019-03-29T07:10:34.555Z,35.50
2019-03-29T07:13:03.222Z,43.67
2019-03-29T07:15:38.583Z,45.20
2019-03-29T07:18:07.274Z,61.10
2019-03-29T07:20:36.060Z,61.53
2019-03-29T07:23:05.010Z,52.63
2019-03-29T07:25:33.822Z,58.83
2019-03-29T07:28:02.503Z,55.53
2019-03-29T07:30:31.500Z,55.67
2019-03-29T07:33:00.185Z,61.10
2019-03-29T07:35:29.073Z,53.83
2019-03-29T07:37:58.073Z,53.03
2019-03-29T07:40:26.742Z,53.20
2019-03-29T07:42:55.557Z,43.90
2019-03-29T07:45:24.237Z,47.97
2019-03-29T07:47:53.150Z,50.03
2019-03-29T07:50:22.034Z,45.20
2019-03-29T07:52:50.790Z,49.93
2019-03-29T07:55:19.673Z,53.80
2019-03-29T07:57:48.528Z,53.50
2019-03-29T08:00:20.307Z,51.27
2019-03-29T08:02:47.921Z,47.43
2019-03-29T08:05:17.935Z,48.60
2019-03-29T08:07:46.824Z,53.77
2019-03-29T08:10:25.865Z,46.40
2019-03-29T08:12:46.221Z,44.70
2019-03-29T08:15:14.899Z,45.60
2019-03-29T08:17:46.358Z,45.00
2019-03-29T08:20:38.202Z,48.10
2019-03-29T08:22:45.760Z,47.03
2019-03-29T08:25:14.661Z,49.40
2019-03-29T08:27:43.338Z,43.47
2019-03-29T08:30:14.109Z,47.27
2019-03-29T08:32:42.970Z,51.00
2019-03-29T08:35:11.633Z,54.80
2019-03-29T08:37:42.243Z,45.07
2019-03-29T08:40:11.255Z,45.87
2019-03-29T08:42:40.186Z,46.23
2019-03-29T08:45:09.496Z,48.17
2019-03-29T08:47:38.178Z,45.30
2019-03-29T08:50:07.739Z,50.90
2019-03-29T08:52:36.415Z,49.87
2019-03-29T08:55:05.257Z,50.37
2019-03-29T08:57:34.091Z,51.83
2019-03-29T09:00:03.168Z,50.17
2019-03-29T09:02:32.252Z,50.03
2019-03-29T09:05:02.063Z,48.30
2019-03-29T09:07:43.980Z,46.73
2019-03-29T09:10:04.980Z,46.53
2019-03-29T09:12:36.764Z,47.53
2019-03-29T09:15:06.150Z,49.77
2019-03-29T09:17:35.060Z,46.37
2019-03-29T09:20:03.818Z,47.33
2019-03-29T09:22:33.692Z,47.50
2019-03-29T09:25:02.554Z,50.90
2019-03-29T09:27:32.094Z,47.37
2019-03-29T09:30:01.091Z,48.37
2019-03-29T09:32:29.906Z,45.57
2019-03-29T09:34:58.626Z,47.77
2019-03-29T09:37:27.324Z,47.23
2019-03-29T09:39:56.243Z,50.57
2019-03-29T09:42:29.568Z,54.80
2019-03-29T09:44:55.484Z,50.30
2019-03-29T09:47:24.363Z,52.30
2019-03-29T09:49:53.047Z,51.77
2019-03-29T09:52:21.833Z,49.10
2019-03-29T09:54:53.864Z,50.10
2019-03-29T09:57:21.361Z,53.40
2019-03-29T09:59:50.250Z,52.13
2019-03-29T10:02:19.635Z,53.33
2019-03-29T10:04:48.767Z,53.47
2019-03-29T10:07:17.605Z,54.10
2019-03-29T10:09:46.741Z,50.87
2019-03-29T10:12:21.536Z,51.77
2019-03-29T10:14:50.772Z,48.97
2019-03-29T10:17:19.586Z,52.97
2019-03-29T10:19:50.038Z,52.93
2019-03-29T10:22:19.543Z,46.00
2019-03-29T10:24:48.273Z,44.73
2019-03-29T10:27:19.002Z,48.10
2019-03-29T10:29:49.332Z,48.27
2019-03-29T10:32:18.161Z,53.63
2019-03-29T10:34:50.521Z,52.43
2019-03-29T10:37:19.519Z,52.23
2019-03-29T10:39:48.691Z,53.13
2019-03-29T10:42:23.262Z,49.60
2019-03-29T10:44:52.332Z,51.00
2019-03-29T10:47:42.301Z,49.57
2019-03-29T10:50:03.270Z,50.00
2019-03-29T10:52:32.304Z,48.43
2019-03-29T10:55:04.125Z,49.97
2019-03-29T10:57:34.560Z,49.40
2019-03-29T11:00:07.337Z,45.10
2019-03-29T11:02:36.182Z,46.97
2019-03-29T11:05:07.284Z,45.63
2019-03-29T11:07:37.499Z,49.50
2019-03-29T11:10:08.862Z,45.80
2019-03-29T11:12:37.804Z,48.63
2019-03-29T11:15:07.321Z,48.87
2019-03-29T11:17:36.430Z,49.77
2019-03-29T11:20:08.995Z,49.80
2019-03-29T11:22:37.861Z,45.63
2019-03-29T11:25:07.227Z,49.13
2019-03-29T11:27:37.388Z,47.43
2019-03-29T11:30:06.891Z,49.60
2019-03-29T11:32:37.510Z,50.17
2019-03-29T11:35:06.716Z,49.10
2019-03-29T11:37:39.632Z,50.43
2019-03-29T11:40:11.123Z,49.00
2019-03-29T11:42:39.983Z,48.30
2019-03-29T11:45:13.894Z,45.60
2019-03-29T11:47:43.329Z,47.10
2019-03-29T11:50:12.678Z,46.70
2019-03-29T11:52:43.525Z,47.07
2019-03-29T11:55:12.299Z,47.23
2019-03-29T11:57:42.700Z,48.23
2019-03-29T12:00:22.717Z,46.67
2019-03-29T12:05:30.307Z,46.40
2019-03-29T12:07:59.438Z,44.87
2019-03-29T12:10:30.239Z,43.33
2019-03-29T12:13:01.212Z,43.83
2019-03-29T12:15:37.526Z,44.73
2019-03-29T12:18:07.330Z,44.80
2019-03-29T12:20:39.228Z,46.27
2019-03-29T12:23:08.935Z,41.57
2019-03-29T12:25:39.681Z,43.30
2019-03-29T12:28:08.650Z,42.77
2019-03-29T12:30:38.754Z,42.07
2019-03-29T12:33:09.797Z,41.63
2019-03-29T12:35:38.574Z,42.57
2019-03-29T12:38:08.420Z,41.17
2019-03-29T12:40:37.502Z,40.17
2019-03-29T12:43:06.158Z,40.93
2019-03-29T12:45:34.917Z,40.40
2019-03-29T12:48:04.449Z,42.50
2019-03-29T12:50:35.061Z,42.20
2019-03-29T12:53:04.004Z,40.50
2019-03-29T12:55:32.958Z,40.77
2019-03-29T12:58:04.250Z,38.90
2019-03-29T13:00:34.975Z,37.73
2019-03-29T13:03:05.277Z,39.73
2019-03-29T13:05:34.201Z,38.73
2019-03-29T13:08:03.430Z,36.37
2019-03-29T13:10:32.246Z,35.33
2019-03-29T13:13:02.470Z,36.30
2019-03-29T13:15:32.335Z,38.10
2019-03-29T13:18:01.069Z,35.03
2019-03-29T13:20:30.013Z,36.27
2019-03-29T13:22:58.933Z,37.10
2019-03-29T13:25:29.158Z,38.67
2019-03-29T13:27:59.494Z,36.27
2019-03-29T13:30:29.508Z,35.33
2019-03-29T13:33:01.108Z,35.50
2019-03-29T13:35:29.916Z,34.37
2019-03-29T13:37:58.802Z,34.07
2019-03-29T13:40:27.873Z,35.87
2019-03-29T13:42:57.020Z,33.13
2019-03-29T13:45:27.868Z,34.50
2019-03-29T13:47:56.272Z,35.30
2019-03-29T13:50:27.172Z,34.63
2019-03-29T13:52:55.886Z,33.20
2019-03-29T13:55:24.890Z,34.47
2019-03-29T13:57:57.211Z,32.80
2019-03-29T14:00:25.869Z,34.33
2019-03-29T14:02:54.826Z,35.00
2019-03-29T14:05:27.101Z,32.33
2019-03-29T14:07:55.917Z,32.27
2019-03-29T14:10:25.109Z,31.37
2019-03-29T14:12:53.888Z,31.33
2019-03-29T14:15:24.282Z,28.73
2019-03-29T14:17:55.500Z,29.90
2019-03-29T14:20:35.025Z,30.07
2019-03-29T14:23:05.036Z,30.10
2019-03-29T14:25:34.298Z,30.40
2019-03-29T14:28:06.337Z,27.30
2019-03-29T14:30:35.576Z,26.67
2019-03-29T14:33:04.705Z,28.67
2019-03-29T14:35:33.471Z,29.80
2019-03-29T14:38:02.541Z,28.07
2019-03-29T14:40:31.551Z,28.20
2019-03-29T14:43:03.286Z,29.33
2019-03-29T14:45:32.388Z,30.73
2019-03-29T14:48:03.551Z,28.13
2019-03-29T14:50:35.941Z,28.40
2019-03-29T14:53:06.187Z,27.33
2019-03-29T14:55:35.163Z,28.57
2019-03-29T14:58:05.101Z,29.80
2019-03-29T15:00:42.360Z,31.23
2019-03-29T15:03:14.424Z,29.27
2019-03-29T15:05:43.148Z,28.63
2019-03-29T15:08:13.885Z,31.33
2019-03-29T15:10:45.641Z,29.90
2019-03-29T15:13:13.457Z,27.23
2019-03-29T15:15:43.485Z,28.13
2019-03-29T15:18:15.064Z,27.63
2019-03-29T15:20:53.479Z,26.90
2019-03-29T15:23:17.818Z,24.93
2019-03-29T15:25:49.673Z,25.53
2019-03-29T15:28:18.539Z,26.50
2019-03-29T15:30:47.861Z,28.23
2019-03-29T15:33:16.831Z,26.20
2019-03-29T15:35:45.864Z,25.40
2019-03-29T15:38:14.650Z,26.80
2019-03-29T15:40:43.834Z,25.67
2019-03-29T15:43:12.820Z,26.30
2019-03-29T15:45:42.811Z,27.37
2019-03-29T15:48:11.516Z,26.13
2019-03-29T15:50:41.722Z,25.77
2019-03-29T15:53:10.487Z,27.57
2019-03-29T15:55:39.343Z,26.40
2019-03-29T15:58:08.815Z,26.97
2019-03-29T16:00:40.818Z,27.30
2019-03-29T16:03:14.390Z,27.90
2019-03-29T16:05:48.377Z,29.03
2019-03-29T16:08:16.594Z,27.43
2019-03-29T16:10:47.580Z,25.53
2019-03-29T16:13:16.672Z,26.33
2019-03-29T16:15:48.859Z,29.20
2019-03-29T16:18:19.229Z,28.17
2019-03-29T16:20:48.161Z,26.80
2019-03-29T16:23:17.193Z,28.60
2019-03-29T16:25:46.076Z,27.70
2019-03-29T16:28:14.980Z,27.10
2019-03-29T16:30:43.844Z,27.57
2019-03-29T16:33:12.824Z,26.37
2019-03-29T16:35:44.467Z,26.70
2019-03-29T16:38:13.402Z,27.27
2019-03-29T16:40:43.729Z,27.03
2019-03-29T16:43:12.556Z,27.83
2019-03-29T16:45:48.204Z,28.27
2019-03-29T16:48:13.419Z,27.00
2019-03-29T16:50:43.746Z,26.30
2019-03-29T16:53:12.885Z,27.23
2019-03-29T16:55:42.127Z,27.17
2019-03-29T16:58:10.971Z,28.10
2019-03-29T17:00:43.405Z,30.20
2019-03-29T17:03:12.359Z,29.13
2019-03-29T17:05:43.139Z,29.63
2019-03-29T17:08:13.518Z,31.50
2019-03-29T17:10:44.014Z,31.00
2019-03-29T17:13:13.093Z,33.60
2019-03-29T17:15:44.655Z,29.23
2019-03-29T17:18:14.675Z,31.33
2019-03-29T17:20:43.696Z,30.97
2019-03-29T17:23:13.720Z,29.37
2019-03-29T17:25:45.282Z,31.60
2019-03-29T17:28:14.135Z,32.03
2019-03-29T17:30:51.046Z,30.37
2019-03-29T17:33:22.557Z,30.27
2019-03-29T17:35:53.696Z,32.60
2019-03-29T17:38:22.711Z,30.77
2019-03-29T17:40:52.922Z,30.70
2019-03-29T17:43:23.180Z,32.43
2019-03-29T17:45:51.964Z,31.47
2019-03-29T17:48:20.833Z,31.93
2019-03-29T17:50:49.511Z,29.43
2019-03-29T17:53:23.265Z,31.40
2019-03-29T17:55:52.143Z,31.73
2019-03-29T17:58:20.821Z,30.00
2019-03-29T18:00:49.626Z,33.30
2019-03-29T18:03:19.919Z,29.73
2019-03-29T18:05:48.720Z,30.07
2019-03-29T18:08:20.790Z,32.10
2019-03-29T18:10:49.481Z,29.00
2019-03-29T18:13:21.905Z,30.13
2019-03-29T18:15:50.859Z,29.03
2019-03-29T18:18:19.883Z,30.77
2019-03-29T18:20:48.593Z,30.30
2019-03-29T18:23:18.562Z,32.10
2019-03-29T18:25:47.255Z,33.20
2019-03-29T18:28:15.932Z,29.10
2019-03-29T18:30:44.816Z,33.13
2019-03-29T18:33:14.412Z,31.90
2019-03-29T18:35:46.706Z,31.60
2019-03-29T18:38:15.701Z,31.00
2019-03-29T18:40:44.479Z,32.43
2019-03-29T18:43:13.245Z,32.37
2019-03-29T18:45:42.576Z,37.17
2019-03-29T18:48:11.627Z,31.00
2019-03-29T18:50:40.384Z,35.87
2019-03-29T18:55:46.998Z,32.20
2019-03-29T18:58:15.849Z,32.10
2019-03-29T19:00:44.508Z,30.40
2019-03-29T19:03:13.326Z,29.43
2019-03-29T19:05:41.993Z,32.20
2019-03-29T19:08:10.849Z,33.07
2019-03-29T19:10:39.598Z,30.60
2019-03-29T19:13:08.366Z,31.20
2019-03-29T19:15:37.226Z,33.43
2019-03-29T19:18:06.099Z,35.83
2019-03-29T19:20:34.773Z,35.30
2019-03-29T19:23:03.470Z,38.40
2019-03-29T19:25:32.391Z,35.70
2019-03-29T19:28:01.164Z,37.90
2019-03-29T19:30:30.103Z,37.07
2019-03-29T19:32:59.167Z,39.93
2019-03-29T19:35:27.826Z,42.37
2019-03-29T19:37:56.655Z,36.80
2019-03-29T19:40:25.484Z,36.80
2019-03-29T19:42:54.449Z,37.60
2019-03-29T19:45:24.535Z,46.07
2019-03-29T19:47:53.281Z,36.60
2019-03-29T19:50:22.485Z,39.57
2019-03-29T19:52:51.314Z,35.47
2019-03-29T19:55:20.261Z,38.40
2019-03-29T19:57:49.313Z,40.37
2019-03-29T20:00:21.248Z,42.63
2019-03-29T20:02:50.128Z,36.90
2019-03-29T20:05:26.737Z,43.80
2019-03-29T20:07:56.320Z,39.90
2019-03-29T20:10:25.449Z,44.57
2019-03-29T20:12:54.315Z,38.53
2019-03-29T20:15:23.403Z,42.07
2019-03-29T20:17:52.474Z,42.57
2019-03-29T20:20:25.787Z,39.97
2019-03-29T20:22:57.965Z,48.00
2019-03-29T20:25:26.759Z,42.33
2019-03-29T20:27:58.342Z,39.87
2019-03-29T20:30:26.817Z,41.17
2019-03-29T20:32:56.826Z,44.20
2019-03-29T20:35:25.954Z,40.50
2019-03-29T20:37:54.677Z,44.67
2019-03-29T20:40:23.707Z,44.23
2019-03-29T20:42:52.419Z,42.23
2019-03-29T20:45:21.121Z,39.67
2019-03-29T20:47:52.010Z,43.97
2019-03-29T20:50:21.034Z,42.03
2019-03-29T20:52:49.972Z,44.53
2019-03-29T20:55:18.961Z,43.40
2019-03-29T20:57:47.679Z,44.30
2019-03-29T21:00:18.287Z,47.37
2019-03-29T21:02:46.985Z,45.23
2019-03-29T21:05:15.860Z,45.60
2019-03-29T21:07:44.717Z,49.60
2019-03-29T21:10:15.307Z,46.27
2019-03-29T21:12:44.515Z,42.70
2019-03-29T21:15:15.557Z,50.40
2019-03-29T21:17:55.995Z,49.47
2019-03-29T21:20:15.415Z,45.37
2019-03-29T21:22:44.229Z,49.77
2019-03-29T21:25:13.226Z,44.40
2019-03-29T21:27:42.015Z,49.43
2019-03-29T21:30:11.870Z,50.93
2019-03-29T21:32:40.881Z,47.20
2019-03-29T21:35:09.935Z,50.67
2019-03-29T21:37:38.637Z,46.80
2019-03-29T21:40:08.351Z,49.70
2019-03-29T21:42:38.842Z,50.43
2019-03-29T21:45:08.469Z,51.47
2019-03-29T21:47:37.256Z,51.10
2019-03-29T21:50:07.762Z,50.27
2019-03-29T21:52:36.861Z,46.47
2019-03-29T21:55:06.776Z,51.90
2019-03-29T21:57:35.592Z,54.60
2019-03-29T22:00:07.731Z,48.50
2019-03-29T22:02:36.663Z,49.30
2019-03-29T22:05:10.171Z,51.63
2019-03-29T22:07:37.674Z,49.03
2019-03-29T22:10:08.054Z,48.27
2019-03-29T22:12:37.272Z,50.70
2019-03-29T22:15:07.364Z,50.00
2019-03-29T22:17:36.068Z,54.17
2019-03-29T22:20:05.657Z,49.80
2019-03-29T22:22:34.606Z,49.00
2019-03-29T22:25:04.130Z,49.27
2019-03-29T22:27:32.982Z,46.27
2019-03-29T22:30:01.680Z,50.90
2019-03-29T22:32:30.613Z,45.40
2019-03-29T22:34:59.272Z,48.10
2019-03-29T22:37:27.976Z,45.80
2019-03-29T22:39:56.834Z,45.20
2019-03-29T22:42:25.509Z,47.10
2019-03-29T22:44:54.325Z,45.40
2019-03-29T22:47:22.996Z,43.90
2019-03-29T22:49:51.731Z,47.87
2019-03-29T22:52:20.811Z,50.10
2019-03-29T22:54:49.809Z,45.73
2019-03-29T22:57:18.508Z,51.07
2019-03-29T22:59:47.277Z,48.30
2019-03-29T23:02:16.503Z,48.20
2019-03-29T23:04:45.198Z,45.93
2019-03-29T23:07:13.858Z,43.23
2019-03-29T23:09:42.770Z,50.07
2019-03-29T23:12:11.476Z,44.43
2019-03-29T23:14:40.370Z,43.13
2019-03-29T23:17:09.063Z,43.43
2019-03-29T23:19:37.951Z,46.43
2019-03-29T23:22:06.640Z,45.67
2019-03-29T23:24:35.351Z,44.63
2019-03-29T23:27:04.202Z,47.57
2019-03-29T23:29:32.889Z,41.40
2019-03-29T23:32:01.572Z,41.37
2019-03-29T23:34:30.364Z,47.97
2019-03-29T23:36:59.055Z,45.77
2019-03-29T23:39:27.721Z,45.80
2019-03-29T23:41:56.684Z,37.93
2019-03-29T23:44:25.556Z,42.67
2019-03-29T23:46:54.231Z,46.27
2019-03-29T23:49:23.054Z,46.10
2019-03-29T23:51:51.712Z,44.77
2019-03-29T23:54:20.516Z,45.40
2019-03-29T23:56:49.359Z,43.10
2019-03-29T23:59:18.142Z,50.07
